Time;durP1;ratioP1;P1;durP2;ratioP2;P2;SDS_P1;SDS_P2;PMS_P1;PMS_P2;Temp;Humidity;BMP_temperature;BMP_pressure;BME280_temperature;BME280_humidity;BME280_pressure;Samples;Min_cycle;Max_cycle;Signal;HPM_P1;HPM_P2
2021/06/05 00:01:50;;;;;;;6.47;5.45;;;22.40;71.80;;;;;;5134402;27;20047;-60
2021/06/05 00:04:18;;;;;;;6.10;5.15;;;22.40;71.80;;;;;;5134630;27;20066;-59
2021/06/05 00:06:45;;;;;;;6.20;5.50;;;22.30;71.70;;;;;;5119769;27;20051;-60
2021/06/05 00:09:12;;;;;;;6.25;5.28;;;22.40;71.80;;;;;;5117978;27;20208;-60
2021/06/05 00:11:58;;;;;;;6.80;5.88;;;22.40;71.80;;;;;;5120513;27;20100;-60
2021/06/05 00:14:23;;;;;;;6.40;5.55;;;22.40;71.80;;;;;;5120040;27;20052;-50
2021/06/05 00:16:50;;;;;;;5.68;5.07;;;22.40;71.80;;;;;;5131042;27;20043;-60
2021/06/05 00:19:19;;;;;;;6.57;5.63;;;22.40;71.80;;;;;;5136145;27;20154;-59
2021/06/05 00:21:46;;;;;;;6.03;4.88;;;22.40;71.90;;;;;;5135664;27;20207;-59
2021/06/05 00:24:12;;;;;;;5.70;4.93;;;22.30;71.80;;;;;;5121906;27;20043;-60
2021/06/05 00:26:38;;;;;;;6.07;5.47;;;22.30;71.80;;;;;;5121194;27;20039;-60
2021/06/05 00:29:04;;;;;;;5.70;5.10;;;22.40;71.90;;;;;;5117280;27;20111;-55
2021/06/05 00:31:30;;;;;;;5.85;5.28;;;22.40;71.90;;;;;;5114444;28;20044;-57
2021/06/05 00:33:56;;;;;;;5.55;4.97;;;22.30;71.90;;;;;;5131960;27;20043;-48
2021/06/05 00:36:23;;;;;;;6.20;5.35;;;22.30;71.90;;;;;;5128680;27;20070;-53
2021/06/05 00:38:49;;;;;;;7.10;5.43;;;22.30;71.90;;;;;;5134721;27;20043;-57
2021/06/05 00:41:17;;;;;;;5.88;4.93;;;22.30;71.90;;;;;;5118479;27;20046;-48
2021/06/05 00:43:47;;;;;;;5.82;5.18;;;22.30;71.90;;;;;;5127428;27;20043;-49
2021/06/05 00:46:14;;;;;;;6.32;5.50;;;22.30;71.90;;;;;;5116323;27;20135;-60
2021/06/05 00:48:40;;;;;;;5.30;4.80;;;22.30;71.90;;;;;;5115123;28;20097;-60
2021/06/05 00:51:06;;;;;;;5.63;4.75;;;22.30;71.90;;;;;;5125025;27;20051;-58
2021/06/05 00:53:33;;;;;;;6.05;5.05;;;22.30;72.00;;;;;;5125960;27;20046;-59
2021/06/05 00:56:01;;;;;;;5.50;4.82;;;22.30;72.00;;;;;;5126588;27;20043;-60
2021/06/05 00:58:28;;;;;;;5.25;4.75;;;22.30;72.00;;;;;;5126556;27;20047;-51
2021/06/05 01:01:00;;;;;;;5.30;4.72;;;22.30;72.00;;;;;;5115926;27;20051;-58
2021/06/05 01:03:27;;;;;;;6.07;5.15;;;22.30;72.00;;;;;;5115002;28;20048;-51
2021/06/05 01:06:06;;;;;;;5.95;5.35;;;22.30;72.00;;;;;;5122429;27;20046;-59
2021/06/05 01:08:41;;;;;;;5.53;4.72;;;22.30;72.00;;;;;;5133181;27;20047;-48
2021/06/05 01:11:23;;;;;;;5.30;4.80;;;22.30;72.00;;;;;;5134361;27;20043;-51
2021/06/05 01:13:55;;;;;;;6.07;5.47;;;22.30;72.00;;;;;;5114139;28;20039;-58
2021/06/05 01:16:25;;;;;;;5.70;5.10;;;22.30;72.00;;;;;;5114539;28;20065;-57
2021/06/05 01:19:02;;;;;;;5.85;5.10;;;22.20;71.90;;;;;;5113784;28;20078;-58
2021/06/05 01:21:46;;;;;;;5.05;4.55;;;22.30;72.00;;;;;;5114264;28;20049;-51
2021/06/05 01:24:46;;;;;;;5.47;4.70;;;22.30;72.00;;;;;;5113930;28;20130;-56
2021/06/05 01:27:17;;;;;;;5.15;4.65;;;22.30;72.00;;;;;;5113823;28;20054;-51
2021/06/05 01:29:49;;;;;;;5.78;5.00;;;22.20;72.00;;;;;;5113832;28;20039;-60
2021/06/05 01:32:15;;;;;;;4.90;4.40;;;22.30;72.10;;;;;;5113848;28;20052;-49
2021/06/05 01:34:51;;;;;;;5.10;4.60;;;22.20;72.00;;;;;;5114099;28;20047;-54
2021/06/05 01:37:18;;;;;;;5.32;4.45;;;22.20;72.00;;;;;;5113342;28;20043;-60
2021/06/05 01:39:47;;;;;;;5.07;4.57;;;22.20;72.00;;;;;;5113883;28;20044;-58
2021/06/05 01:42:21;;;;;;;5.07;4.57;;;22.20;72.00;;;;;;5093247;28;20476;-60
2021/06/05 01:44:51;;;;;;;5.07;4.57;;;22.30;72.10;;;;;;5112988;28;20063;-60
2021/06/05 01:47:17;;;;;;;5.15;4.50;;;22.20;72.10;;;;;;5113763;28;20380;-54
2021/06/05 01:49:44;;;;;;;4.65;4.22;;;22.20;72.10;;;;;;5113377;28;20051;-57
2021/06/05 01:52:13;;;;;;;5.28;4.55;;;22.20;72.10;;;;;;5113753;28;20058;-57
2021/06/05 01:54:45;;;;;;;4.97;4.43;;;22.20;72.10;;;;;;5113694;28;20126;-53
2021/06/05 01:57:15;;;;;;;5.28;4.78;;;22.20;72.10;;;;;;5113762;28;20097;-60
2021/06/05 01:59:42;;;;;;;5.93;4.82;;;22.20;72.10;;;;;;5112987;28;20047;-49
2021/06/05 02:02:08;;;;;;;5.22;4.72;;;22.20;72.10;;;;;;5113510;28;20408;-49
2021/06/05 02:04:35;;;;;;;4.80;4.30;;;22.20;72.10;;;;;;5112581;28;20043;-59
2021/06/05 02:07:01;;;;;;;5.07;4.57;;;22.20;72.10;;;;;;5113003;28;20108;-50
2021/06/05 02:09:28;;;;;;;4.88;4.38;;;22.20;72.10;;;;;;5113274;28;20051;-60
2021/06/05 02:12:15;;;;;;;4.88;4.22;;;22.20;72.10;;;;;;5094421;28;20063;-48
2021/06/05 02:14:50;;;;;;;4.90;4.40;;;22.20;72.10;;;;;;5113200;28;20424;-49
2021/06/05 02:17:19;;;;;;;5.35;4.85;;;22.20;72.20;;;;;;5092829;28;20058;-60
2021/06/05 02:19:48;;;;;;;5.60;4.55;;;22.20;72.20;;;;;;5131652;27;20099;-53
2021/06/05 02:22:20;;;;;;;5.53;4.28;;;22.20;72.80;;;;;;5133625;27;20051;-60
2021/06/05 02:24:49;;;;;;;5.07;4.40;;;22.20;72.20;;;;;;5113781;27;20155;-60
2021/06/05 02:27:18;;;;;;;4.65;4.25;;;22.20;72.20;;;;;;5114284;27;20054;-58
2021/06/05 02:29:45;;;;;;;4.85;4.35;;;22.20;72.30;;;;;;5112925;28;20180;-48
2021/06/05 02:32:14;;;;;;;4.82;4.43;;;22.20;72.20;;;;;;5112835;28;20052;-60
2021/06/05 02:34:41;;;;;;;4.28;3.85;;;22.10;72.10;;;;;;5122175;27;20043;-50
2021/06/05 02:37:10;;;;;;;4.22;3.83;;;22.20;72.20;;;;;;5131444;27;20058;-60
2021/06/05 02:39:36;;;;;;;4.47;4.07;;;22.20;72.20;;;;;;5133586;27;20051;-60
2021/06/05 02:42:07;;;;;;;4.63;4.18;;;22.20;72.20;;;;;;5125394;27;20035;-58
2021/06/05 02:44:34;;;;;;;5.15;4.65;;;22.20;72.20;;;;;;5124082;27;20047;-60
2021/06/05 02:47:07;;;;;;;4.90;4.40;;;22.10;72.20;;;;;;5131028;27;20055;-54
2021/06/05 02:49:34;;;;;;;4.90;4.40;;;22.20;72.30;;;;;;5132639;28;20047;-49
2021/06/05 02:52:10;;;;;;;4.50;4.10;;;22.20;72.30;;;;;;5133312;28;20050;-48
2021/06/05 02:54:37;;;;;;;4.15;3.75;;;22.10;72.30;;;;;;5120636;27;20051;-59
2021/06/05 02:57:07;;;;;;;4.97;4.43;;;22.10;72.30;;;;;;5120221;27;20173;-53
2021/06/05 02:59:33;;;;;;;4.70;4.20;;;22.10;72.30;;;;;;5106201;27;20409;-60
2021/06/05 03:01:59;;;;;;;5.00;4.43;;;22.20;72.30;;;;;;5138826;27;20068;-53
2021/06/05 03:04:25;;;;;;;4.70;4.13;;;22.10;72.30;;;;;;5138686;27;20088;-48
2021/06/05 03:06:52;;;;;;;4.75;3.95;;;22.10;72.30;;;;;;5132835;27;20190;-60
2021/06/05 03:09:19;;;;;;;4.22;3.85;;;22.10;72.30;;;;;;5119706;27;20514;-59
2021/06/05 03:11:47;;;;;;;4.50;4.07;;;22.10;72.30;;;;;;5136801;27;20100;-52
2021/06/05 03:14:13;;;;;;;4.20;3.80;;;22.10;72.30;;;;;;5139005;27;20517;-56
2021/06/05 03:16:39;;;;;;;4.68;4.15;;;22.10;72.40;;;;;;5120533;27;20399;-60
2021/06/05 03:19:05;;;;;;;4.25;3.85;;;22.10;72.30;;;;;;5119297;27;20050;-61
2021/06/05 03:21:32;;;;;;;3.80;3.42;;;22.10;72.30;;;;;;5119326;28;20058;-60
2021/06/05 03:23:58;;;;;;;4.32;3.90;;;22.20;72.40;;;;;;5121430;27;20425;-62
2021/06/05 03:26:24;;;;;;;4.65;4.13;;;22.10;72.40;;;;;;5140034;27;20051;-58
2021/06/05 03:28:54;;;;;;;4.53;4.13;;;22.10;72.30;;;;;;5134746;27;20043;-59
2021/06/05 03:31:21;;;;;;;4.38;3.97;;;22.10;72.40;;;;;;5139691;27;20042;-49
2021/06/05 03:33:49;;;;;;;4.00;3.60;;;22.10;72.40;;;;;;5139503;27;20043;-60
2021/06/05 03:36:15;;;;;;;4.07;3.67;;;22.10;72.40;;;;;;5140352;27;20100;-57
2021/06/05 03:38:44;;;;;;;4.07;3.67;;;22.10;72.40;;;;;;5119876;27;20114;-58
2021/06/05 03:41:10;;;;;;;4.18;3.78;;;22.10;72.40;;;;;;5120370;27;20047;-57
2021/06/05 03:43:35;;;;;;;4.35;3.83;;;22.10;72.40;;;;;;5127051;27;20045;-60
2021/06/05 03:46:08;;;;;;;4.10;3.70;;;22.10;72.40;;;;;;5139113;27;20410;-59
2021/06/05 03:48:34;;;;;;;4.43;4.03;;;22.10;72.40;;;;;;5118777;27;20055;-59
2021/06/05 03:51:00;;;;;;;4.15;3.65;;;22.10;72.40;;;;;;5120168;27;20043;-60
2021/06/05 03:53:26;;;;;;;4.47;3.90;;;22.00;72.40;;;;;;5127485;27;20363;-61
2021/06/05 03:55:53;;;;;;;4.22;3.83;;;22.00;72.30;;;;;;5139737;27;20043;-61
2021/06/05 03:58:25;;;;;;;3.70;3.40;;;22.00;72.40;;;;;;5131527;27;20039;-61
2021/06/05 04:00:51;;;;;;;3.92;3.53;;;22.00;72.40;;;;;;5129608;27;20073;-60
2021/06/05 04:03:17;;;;;;;3.72;3.42;;;22.10;72.50;;;;;;5138707;27;20099;-60
2021/06/05 04:05:42;;;;;;;4.40;4.00;;;22.00;72.40;;;;;;5135624;27;20051;-61
2021/06/05 04:08:10;;;;;;;4.30;3.50;;;22.00;72.40;;;;;;5120111;27;20438;-59
2021/06/05 04:10:36;;;;;;;4.32;3.92;;;22.10;72.50;;;;;;5100483;27;20051;-60
2021/06/05 04:13:03;;;;;;;3.92;3.58;;;22.00;72.40;;;;;;5133742;27;20051;-60
2021/06/05 04:15:30;;;;;;;4.00;3.60;;;22.10;72.50;;;;;;5118388;27;20047;-60
2021/06/05 04:18:04;;;;;;;5.07;4.57;;;22.00;72.40;;;;;;5115050;28;20044;-60
2021/06/05 04:20:31;;;;;;;3.88;3.47;;;22.00;72.40;;;;;;5132675;27;20505;-61
2021/06/05 04:22:57;;;;;;;4.00;3.60;;;22.00;72.50;;;;;;5133809;27;20068;-61
2021/06/05 04:25:23;;;;;;;3.58;3.28;;;22.00;72.40;;;;;;5135875;27;20039;-61
2021/06/05 04:27:49;;;;;;;3.38;3.08;;;22.00;72.40;;;;;;5134064;27;20157;-60
2021/06/05 04:30:16;;;;;;;4.22;3.83;;;22.00;72.50;;;;;;5135750;27;20046;-61
2021/06/05 04:32:43;;;;;;;3.63;3.33;;;22.00;72.50;;;;;;5133816;27;20493;-60
2021/06/05 04:35:29;;;;;;;3.90;3.50;;;22.00;72.50;;;;;;5120134;27;20069;-61
2021/06/05 04:37:55;;;;;;;4.20;3.70;;;22.00;72.50;;;;;;5124052;27;20043;-61
2021/06/05 04:40:22;;;;;;;3.92;3.55;;;22.00;72.50;;;;;;5120355;27;20050;-61
2021/06/05 04:42:49;;;;;;;3.63;3.30;;;22.00;72.50;;;;;;5134041;27;20099;-61
2021/06/05 04:45:16;;;;;;;3.55;3.22;;;22.00;72.50;;;;;;5094664;28;20058;-61
2021/06/05 04:47:42;;;;;;;3.90;3.50;;;22.00;72.50;;;;;;5101396;27;20039;-61
2021/06/05 04:50:10;;;;;;;3.75;3.35;;;22.00;72.50;;;;;;5127107;27;20047;-61
2021/06/05 04:52:36;;;;;;;3.97;3.58;;;22.00;72.50;;;;;;5114780;27;20047;-60
2021/06/05 04:55:03;;;;;;;3.97;3.40;;;22.00;72.60;;;;;;5115836;27;20441;-60
2021/06/05 04:57:28;;;;;;;4.10;3.70;;;22.00;72.50;;;;;;5114765;28;20488;-61
2021/06/05 04:59:55;;;;;;;3.80;3.40;;;22.00;72.50;;;;;;5134891;27;20459;-61
2021/06/05 05:02:21;;;;;;;3.55;3.25;;;22.00;72.50;;;;;;5118991;27;20064;-61
2021/06/05 05:04:46;;;;;;;4.18;3.78;;;22.00;72.50;;;;;;5115420;27;20035;-60
2021/06/05 05:07:14;;;;;;;3.92;3.53;;;22.00;72.50;;;;;;5102294;27;20051;-58
2021/06/05 05:09:40;;;;;;;3.50;3.20;;;22.00;72.60;;;;;;5135144;27;20069;-60
2021/06/05 05:12:06;;;;;;;4.00;3.60;;;22.00;72.50;;;;;;5126050;27;20116;-59
2021/06/05 05:14:33;;;;;;;3.90;3.60;;;22.00;72.60;;;;;;5134973;27;20039;-61
2021/06/05 05:16:59;;;;;;;3.75;3.40;;;22.00;72.60;;;;;;5134706;27;20039;-60
2021/06/05 05:19:25;;;;;;;3.80;3.40;;;22.00;72.60;;;;;;5135127;27;20387;-61
2021/06/05 05:21:51;;;;;;;3.70;3.40;;;22.00;72.60;;;;;;5134400;27;20123;-61
2021/06/05 05:24:17;;;;;;;3.55;3.25;;;22.00;72.60;;;;;;5134574;27;20078;-61
2021/06/05 05:26:43;;;;;;;4.10;3.70;;;22.00;72.60;;;;;;5134498;27;20085;-61
2021/06/05 05:29:09;;;;;;;3.92;3.58;;;22.00;72.60;;;;;;5134616;27;20058;-60
2021/06/05 05:31:35;;;;;;;3.75;3.40;;;22.00;72.60;;;;;;5134648;27;20500;-61
2021/06/05 05:34:00;;;;;;;3.38;3.08;;;22.00;72.60;;;;;;5134365;27;20457;-60
2021/06/05 05:36:31;;;;;;;3.40;3.05;;;22.00;72.70;;;;;;5133508;27;20039;-61
2021/06/05 05:38:57;;;;;;;3.67;3.35;;;22.00;72.60;;;;;;5134287;27;20081;-60
2021/06/05 05:41:24;;;;;;;4.00;3.60;;;22.00;72.60;;;;;;5134283;27;20043;-55
2021/06/05 05:43:50;;;;;;;4.00;3.60;;;22.00;72.60;;;;;;5134064;27;20176;-58
2021/06/05 05:46:17;;;;;;;3.90;3.50;;;22.00;72.60;;;;;;5134433;27;20051;-60
2021/06/05 05:48:43;;;;;;;3.67;3.28;;;22.00;72.60;;;;;;5134353;27;20129;-60
2021/06/05 05:51:11;;;;;;;3.72;3.40;;;22.00;72.60;;;;;;5133786;27;20469;-60
2021/06/05 05:53:39;;;;;;;3.40;3.10;;;22.00;72.60;;;;;;5133904;27;20371;-59
2021/06/05 05:56:07;;;;;;;3.60;3.30;;;21.90;72.60;;;;;;5134547;27;20043;-59
2021/06/05 05:58:36;;;;;;;3.50;3.20;;;22.00;72.60;;;;;;5134196;27;20048;-59
2021/06/05 06:01:03;;;;;;;4.47;3.80;;;22.00;72.60;;;;;;5134371;27;20047;-59
2021/06/05 06:03:30;;;;;;;3.92;3.47;;;22.00;72.60;;;;;;5134000;27;20111;-59
2021/06/05 06:05:55;;;;;;;3.58;3.28;;;22.00;72.70;;;;;;5134024;27;20054;-57
2021/06/05 06:08:22;;;;;;;3.47;3.17;;;21.90;72.60;;;;;;5132995;27;20039;-59
2021/06/05 06:10:49;;;;;;;3.33;2.95;;;22.00;72.60;;;;;;5133606;27;20055;-59
2021/06/05 06:13:15;;;;;;;3.53;3.15;;;22.00;72.60;;;;;;5119564;27;20453;-59
2021/06/05 06:15:41;;;;;;;3.38;3.08;;;22.00;72.60;;;;;;5112935;28;20047;-60
2021/06/05 06:18:11;;;;;;;3.47;3.10;;;22.00;72.70;;;;;;5112817;28;20410;-58
2021/06/05 06:20:43;;;;;;;3.80;3.40;;;22.00;72.70;;;;;;5111937;28;20067;-59
2021/06/05 06:23:11;;;;;;;3.40;3.10;;;22.00;72.70;;;;;;5112590;28;20513;-58
2021/06/05 06:25:40;;;;;;;3.45;3.13;;;22.00;72.60;;;;;;5112973;28;20043;-59
2021/06/05 06:28:12;;;;;;;3.40;3.10;;;21.90;72.60;;;;;;5111849;28;20043;-59
2021/06/05 06:30:40;;;;;;;3.80;3.38;;;21.90;72.60;;;;;;5112249;28;20047;-59
2021/06/05 06:33:08;;;;;;;3.28;2.95;;;21.90;72.60;;;;;;5112783;28;20044;-60
2021/06/05 06:35:35;;;;;;;3.30;3.00;;;21.90;72.60;;;;;;5112728;28;20044;-59
2021/06/05 06:38:03;;;;;;;3.47;3.17;;;22.00;72.70;;;;;;5112037;28;20384;-58
2021/06/05 06:40:32;;;;;;;3.42;3.13;;;22.00;72.70;;;;;;5112271;28;20555;-59
2021/06/05 06:42:59;;;;;;;3.15;2.85;;;21.90;72.60;;;;;;5112606;28;20044;-60
2021/06/05 06:45:25;;;;;;;3.38;3.08;;;21.90;72.60;;;;;;5112779;28;20036;-60
2021/06/05 06:47:52;;;;;;;3.38;3.08;;;21.90;72.70;;;;;;5112541;28;20047;-60
2021/06/05 06:50:21;;;;;;;3.35;3.05;;;21.90;72.60;;;;;;5112111;28;20541;-64
2021/06/05 06:52:46;;;;;;;3.20;2.90;;;21.90;72.70;;;;;;5112317;28;20039;-50
2021/06/05 06:55:13;;;;;;;3.28;2.97;;;21.90;72.60;;;;;;5112206;28;20130;-48
2021/06/05 06:57:39;;;;;;;3.33;3.03;;;22.00;73.30;;;;;;5112566;28;20043;-50
2021/06/05 07:00:10;;;;;;;3.22;2.92;;;21.90;72.60;;;;;;5112290;28;20096;-52
2021/06/05 07:02:36;;;;;;;2.92;2.70;;;21.90;72.70;;;;;;5111794;28;20131;-52
2021/06/05 07:05:04;;;;;;;3.15;2.92;;;21.90;72.60;;;;;;5112617;28;20130;-58
2021/06/05 07:07:29;;;;;;;2.95;2.70;;;21.90;72.70;;;;;;5112257;28;20039;-59
2021/06/05 07:09:56;;;;;;;3.25;2.92;;;21.90;72.60;;;;;;5112145;28;20118;-59
2021/06/05 07:12:21;;;;;;;3.38;3.05;;;21.90;72.70;;;;;;5111731;28;20123;-60
2021/06/05 07:14:47;;;;;;;2.92;2.72;;;21.90;72.60;;;;;;5111788;28;20068;-60
2021/06/05 07:17:13;;;;;;;3.10;2.60;;;21.90;72.70;;;;;;5112228;28;20043;-59
2021/06/05 07:19:39;;;;;;;3.30;3.00;;;21.90;72.70;;;;;;5112048;28;20097;-59
2021/06/05 07:22:04;;;;;;;2.58;2.38;;;21.90;72.70;;;;;;5088390;28;20098;-59
2021/06/05 07:24:30;;;;;;;3.50;3.20;;;21.90;72.70;;;;;;5102573;28;20043;-58
2021/06/05 07:26:56;;;;;;;2.80;2.60;;;21.90;72.70;;;;;;5111950;28;20566;-53
2021/06/05 07:29:22;;;;;;;3.35;2.70;;;21.90;72.70;;;;;;5110083;28;20047;-59
2021/06/05 07:31:51;;;;;;;2.90;2.70;;;21.90;72.70;;;;;;5111761;28;20487;-59
2021/06/05 07:34:21;;;;;;;2.85;2.65;;;21.90;72.70;;;;;;5111579;28;20043;-59
2021/06/05 07:36:53;;;;;;;2.67;2.38;;;21.90;72.70;;;;;;5111278;28;20043;-53
2021/06/05 07:39:25;;;;;;;3.03;2.55;;;21.90;72.70;;;;;;5111603;28;20063;-60
2021/06/05 07:41:52;;;;;;;3.38;2.70;;;21.90;72.70;;;;;;5115379;28;20555;-59
2021/06/05 07:44:19;;;;;;;3.05;2.35;;;21.90;72.70;;;;;;5115870;28;20043;-60
2021/06/05 07:46:53;;;;;;;3.03;2.72;;;21.90;72.70;;;;;;5114904;28;20066;-53
2021/06/05 07:49:21;;;;;;;3.28;2.70;;;21.90;72.70;;;;;;5109346;28;20078;-58
2021/06/05 07:51:48;;;;;;;3.20;2.90;;;21.90;72.70;;;;;;5114402;28;20110;-58
2021/06/05 07:54:14;;;;;;;2.50;2.30;;;21.90;72.70;;;;;;5114805;28;20189;-59
2021/06/05 07:56:40;;;;;;;2.72;2.53;;;21.90;72.80;;;;;;5114294;28;20407;-56
2021/06/05 07:59:06;;;;;;;2.67;2.47;;;21.90;72.80;;;;;;5115361;28;20048;-59
2021/06/05 08:01:32;;;;;;;2.92;2.63;;;21.90;72.80;;;;;;5097264;28;20425;-58
2021/06/05 08:03:58;;;;;;;2.58;2.38;;;21.80;72.70;;;;;;5115953;28;20460;-60
2021/06/05 08:06:24;;;;;;;2.60;2.40;;;21.80;72.70;;;;;;5115894;28;20053;-61
2021/06/05 08:08:50;;;;;;;2.72;2.53;;;21.90;72.80;;;;;;5115871;28;20051;-60
2021/06/05 08:11:17;;;;;;;2.80;2.60;;;21.90;72.80;;;;;;5115333;28;20149;-60
2021/06/05 08:13:42;;;;;;;2.53;2.33;;;21.80;72.70;;;;;;5122835;27;20051;-58
2021/06/05 08:16:09;;;;;;;3.20;2.90;;;21.80;72.70;;;;;;5115502;28;20061;-59
2021/06/05 08:18:35;;;;;;;2.90;2.70;;;21.90;72.80;;;;;;5115756;28;20088;-59
2021/06/05 08:21:08;;;;;;;2.70;2.50;;;21.90;72.90;;;;;;5115922;28;20043;-59
2021/06/05 08:23:35;;;;;;;2.85;2.60;;;21.90;72.80;;;;;;5115558;28;20044;-56
2021/06/05 08:26:03;;;;;;;2.38;2.17;;;21.90;72.80;;;;;;5115105;28;20395;-58
2021/06/05 08:28:29;;;;;;;3.20;2.90;;;21.90;72.80;;;;;;5115375;28;20039;-60
2021/06/05 08:30:58;;;;;;;2.78;2.58;;;21.90;72.90;;;;;;5115292;28;20047;-59
2021/06/05 08:33:24;;;;;;;2.65;2.45;;;21.90;72.90;;;;;;5115325;28;20052;-57
2021/06/05 08:35:50;;;;;;;2.60;2.40;;;21.90;72.90;;;;;;5115134;28;20040;-60
2021/06/05 08:38:19;;;;;;;2.85;2.55;;;21.90;72.80;;;;;;5114838;28;20050;-60
2021/06/05 08:41:01;;;;;;;2.50;2.30;;;21.90;72.90;;;;;;5114991;28;20553;-60
2021/06/05 08:43:38;;;;;;;2.80;2.60;;;21.90;72.90;;;;;;5109992;28;20040;-55
2021/06/05 08:46:08;;;;;;;3.10;2.70;;;21.80;72.80;;;;;;5106359;28;20050;-58
2021/06/05 08:48:34;;;;;;;2.60;2.40;;;21.90;72.90;;;;;;5114891;28;20454;-60
2021/06/05 08:51:47;;;;;;;2.80;2.60;;;21.90;72.90;;;;;;5128526;27;20055;-60
2021/06/05 08:54:31;;;;;;;2.90;2.60;;;21.90;72.80;;;;;;5071620;28;20053;-59
2021/06/05 08:57:12;;;;;;;3.53;2.60;;;21.90;72.90;;;;;;5071563;28;20528;-59
2021/06/05 08:59:42;;;;;;;2.70;2.50;;;21.90;72.90;;;;;;5071584;28;20048;-59
2021/06/05 09:02:09;;;;;;;2.97;2.78;;;21.80;72.80;;;;;;5071696;28;20063;-60
2021/06/05 09:04:37;;;;;;;3.15;2.85;;;21.90;72.90;;;;;;5071595;28;20056;-59
2021/06/05 09:07:07;;;;;;;2.60;2.40;;;21.90;72.90;;;;;;5071299;28;20891;-60
2021/06/05 09:09:36;;;;;;;2.83;2.63;;;21.80;72.80;;;;;;5071537;28;20059;-60
2021/06/05 09:12:04;;;;;;;3.20;2.90;;;21.90;72.90;;;;;;5071152;28;20057;-58
2021/06/05 09:14:30;;;;;;;2.70;2.50;;;21.90;72.90;;;;;;5071049;28;20598;-58
2021/06/05 09:17:01;;;;;;;3.10;2.80;;;21.90;72.90;;;;;;5071204;28;20500;-59
2021/06/05 09:19:33;;;;;;;3.00;2.80;;;21.90;72.90;;;;;;5061023;28;20466;-58
2021/06/05 09:22:07;;;;;;;3.03;2.72;;;21.90;72.90;;;;;;5051328;28;20049;-60
2021/06/05 09:24:45;;;;;;;3.10;2.80;;;21.90;72.80;;;;;;5050836;28;20061;-59
2021/06/05 09:27:14;;;;;;;3.20;2.90;;;21.90;72.80;;;;;;5050244;28;20047;-58
2021/06/05 09:30:00;;;;;;;3.30;3.00;;;21.90;73.50;;;;;;5072147;28;20120;-60
2021/06/05 09:32:35;;;;;;;3.42;3.13;;;21.90;72.90;;;;;;5113011;28;20055;-60
2021/06/05 09:35:10;;;;;;;3.00;2.70;;;21.90;72.80;;;;;;5104715;28;20118;-59
2021/06/05 09:37:41;;;;;;;3.03;2.75;;;21.90;72.90;;;;;;5114110;28;20046;-60
2021/06/05 09:40:18;;;;;;;2.83;2.55;;;21.90;72.80;;;;;;5112766;28;20050;-59
2021/06/05 09:42:51;;;;;;;2.88;2.65;;;21.90;72.80;;;;;;5113753;28;20047;-57
2021/06/05 09:45:28;;;;;;;2.97;2.72;;;21.90;72.80;;;;;;5113032;28;20069;-59
2021/06/05 09:48:13;;;;;;;3.10;2.80;;;21.90;72.80;;;;;;5112775;28;20479;-60
2021/06/05 09:50:42;;;;;;;;;;;21.90;72.80;;;;;;5101958;28;20074;-59
2021/06/05 09:53:32;;;;;;;3.78;3.20;;;21.90;72.70;;;;;;5093171;28;19926;-57
2021/06/05 09:56:26;;;;;;;3.15;2.78;;;21.90;72.80;;;;;;5092283;28;20142;-56
2021/06/05 09:59:15;;;;;;;2.83;2.63;;;21.90;72.70;;;;;;5093295;28;20052;-58
2021/06/05 10:01:42;;;;;;;2.80;2.60;;;21.90;72.80;;;;;;5093036;28;20081;-60
2021/06/05 10:04:07;;;;;;;2.80;2.60;;;21.90;72.80;;;;;;5099839;28;20499;-58
2021/06/05 10:06:40;;;;;;;3.03;2.83;;;21.90;72.80;;;;;;5112718;28;20490;-60
2021/06/05 10:09:20;;;;;;;3.08;2.78;;;21.90;72.80;;;;;;5113305;28;20059;-61
2021/06/05 10:11:49;;;;;;;3.55;3.25;;;21.90;72.80;;;;;;5113157;28;20055;-59
2021/06/05 10:14:35;;;;;;;3.40;3.03;;;21.90;72.80;;;;;;5113321;28;20132;-58
2021/06/05 10:17:06;;;;;;;3.65;3.35;;;21.90;72.80;;;;;;5094021;28;20054;-59
2021/06/05 10:19:46;;;;;;;4.00;3.20;;;21.90;72.80;;;;;;5113447;28;20054;-60
2021/06/05 10:22:13;;;;;;;3.08;2.78;;;21.90;72.80;;;;;;5113275;28;20044;-60
2021/06/05 10:25:09;;;;;;;3.75;3.08;;;21.90;72.80;;;;;;5112699;28;20054;-59
2021/06/05 10:27:39;;;;;;;3.10;2.80;;;21.90;72.70;;;;;;5111360;28;20047;-58
2021/06/05 10:30:25;;;;;;;3.10;2.78;;;21.90;72.70;;;;;;5102818;28;20056;-53
2021/06/05 10:32:51;;;;;;;3.67;3.38;;;21.90;72.80;;;;;;5092331;28;20054;-60
2021/06/05 10:35:19;;;;;;;3.78;3.47;;;21.90;72.70;;;;;;5092750;28;20134;-60
2021/06/05 10:37:46;;;;;;;3.58;3.28;;;21.90;72.80;;;;;;5093909;28;20126;-59
2021/06/05 10:40:25;;;;;;;3.15;2.85;;;21.90;72.80;;;;;;5113684;28;20117;-56
2021/06/05 10:42:54;;;;;;;3.47;3.15;;;21.90;72.70;;;;;;5113137;28;20040;-55
2021/06/05 10:45:36;;;;;;;3.22;2.92;;;21.90;72.80;;;;;;5112446;28;20048;-57
2021/06/05 10:48:27;;;;;;;3.60;2.85;;;21.90;72.70;;;;;;5112323;28;20047;-60
2021/06/05 10:51:04;;;;;;;3.55;3.00;;;21.90;72.80;;;;;;5112901;28;20050;-59
2021/06/05 10:53:44;;;;;;;3.17;2.88;;;21.90;72.70;;;;;;5092428;28;20155;-60
2021/06/05 10:56:16;;;;;;;3.28;2.88;;;21.90;72.70;;;;;;5092007;28;20048;-60
2021/06/05 10:58:53;;;;;;;3.17;2.88;;;21.90;72.70;;;;;;5092411;28;20197;-60
2021/06/05 11:01:22;;;;;;;2.88;2.67;;;21.90;72.70;;;;;;5090979;28;20072;-59
2021/06/05 11:04:09;;;;;;;3.70;3.00;;;21.90;72.80;;;;;;5092372;28;20522;-60
2021/06/05 11:07:01;;;;;;;3.15;2.90;;;21.90;72.80;;;;;;5029596;28;20429;-59
2021/06/05 11:09:29;;;;;;;3.50;2.92;;;21.90;72.70;;;;;;5028773;28;20091;-55
2021/06/05 11:12:00;;;;;;;3.35;2.80;;;21.90;72.80;;;;;;5030962;28;20120;-59
2021/06/05 11:14:35;;;;;;;3.80;2.80;;;21.90;72.80;;;;;;5070894;28;20055;-59
2021/06/05 11:17:01;;;;;;;2.90;2.70;;;21.90;72.80;;;;;;5072186;28;20424;-60
2021/06/05 11:19:32;;;;;;;3.13;2.72;;;21.90;72.80;;;;;;5073603;28;20057;-59
2021/06/05 11:22:06;;;;;;;2.78;2.58;;;21.90;72.80;;;;;;5053270;28;20123;-59
2021/06/05 11:24:32;;;;;;;3.13;2.83;;;21.90;72.80;;;;;;5053438;28;20070;-59
2021/06/05 11:27:01;;;;;;;2.78;2.58;;;21.90;72.80;;;;;;5053171;28;20120;-59
2021/06/05 11:29:26;;;;;;;2.72;2.47;;;21.90;72.80;;;;;;5053386;28;20492;-60
2021/06/05 11:31:55;;;;;;;2.60;2.35;;;21.90;72.80;;;;;;5052020;28;20072;-60
2021/06/05 11:34:30;;;;;;;2.75;2.22;;;21.90;72.80;;;;;;5049199;28;20142;-57
2021/06/05 11:37:05;;;;;;;2.67;2.35;;;21.90;72.80;;;;;;5049651;28;20131;-60
2021/06/05 11:39:31;;;;;;;3.63;2.40;;;21.90;72.80;;;;;;5052575;28;20045;-60
2021/06/05 11:41:59;;;;;;;2.35;2.15;;;22.00;72.80;;;;;;5053674;28;20064;-59
2021/06/05 11:44:33;;;;;;;17.17;12.80;;;21.90;72.80;;;;;;5120018;27;20066;-50
2021/06/05 11:47:21;;;;;;;11.70;9.80;;;21.90;73.00;;;;;;5136662;27;20047;-48
2021/06/05 11:49:56;;;;;;;11.98;8.35;;;21.90;73.10;;;;;;5125766;27;20112;-51
2021/06/05 11:52:34;;;;;;;9.52;7.93;;;21.90;73.20;;;;;;5136936;27;20051;-49
2021/06/05 11:55:06;;;;;;;4.82;4.03;;;21.90;73.20;;;;;;5136432;27;20043;-47
2021/06/05 11:57:33;;;;;;;4.65;4.10;;;21.90;73.30;;;;;;5136546;27;20414;-51
2021/06/05 12:00:17;;;;;;;4.60;3.70;;;21.90;73.20;;;;;;5135766;27;20043;-49
2021/06/05 12:02:46;;;;;;;7.75;4.28;;;21.90;73.20;;;;;;5136133;27;20475;-51
2021/06/05 12:05:15;;;;;;;4.85;3.85;;;21.90;73.20;;;;;;5136465;27;20406;-53
2021/06/05 12:07:42;;;;;;;5.40;4.90;;;21.90;73.20;;;;;;5136578;27;20050;-53
2021/06/05 12:10:11;;;;;;;5.07;4.57;;;21.90;73.10;;;;;;5117986;27;20483;-48
2021/06/05 12:12:44;;;;;;;5.13;4.63;;;21.90;73.10;;;;;;5136310;27;20127;-54
2021/06/05 12:15:12;;;;;;;5.60;5.00;;;21.90;73.10;;;;;;5136909;27;20050;-52
2021/06/05 12:17:43;;;;;;;5.18;4.72;;;21.90;73.00;;;;;;5136101;27;20039;-56
2021/06/05 12:20:34;;;;;;;5.05;4.55;;;21.90;73.10;;;;;;5135962;27;20043;-53
2021/06/05 12:23:24;;;;;;;5.03;4.18;;;21.90;73.10;;;;;;5135397;27;20542;-50
2021/06/05 12:25:51;;;;;;;5.50;5.00;;;21.90;73.10;;;;;;5135000;27;20043;-54
2021/06/05 12:28:26;;;;;;;5.25;4.75;;;21.90;73.10;;;;;;5135957;27;20047;-52
2021/06/05 12:30:54;;;;;;;6.50;5.05;;;21.90;73.10;;;;;;5132389;27;20046;-46
2021/06/05 12:33:33;;;;;;;5.88;5.28;;;21.90;73.10;;;;;;5135531;27;20122;-54
2021/06/05 12:36:01;;;;;;;6.43;5.57;;;21.90;73.10;;;;;;5135431;27;20095;-53
2021/06/05 12:38:39;;;;;;;6.45;5.75;;;21.90;73.10;;;;;;5135622;27;20065;-47
2021/06/05 12:41:19;;;;;;;6.82;5.95;;;22.00;73.20;;;;;;5134796;27;20043;-48
2021/06/05 12:43:45;;;;;;;6.72;5.15;;;21.90;73.10;;;;;;5111195;27;20054;-47
2021/06/05 12:46:17;;;;;;;6.32;5.47;;;21.90;73.10;;;;;;5094642;28;20040;-49
2021/06/05 12:48:43;;;;;;;5.90;5.25;;;22.00;73.10;;;;;;5094375;28;20040;-47
2021/06/05 12:51:14;;;;;;;6.63;5.55;;;22.00;73.10;;;;;;5126531;27;20047;-52
2021/06/05 12:53:40;;;;;;;5.05;4.55;;;21.90;73.10;;;;;;5134196;27;20043;-47
2021/06/05 12:56:28;;;;;;;5.65;4.82;;;22.00;73.10;;;;;;5135823;27;20050;-46
2021/06/05 12:58:56;;;;;;;7.15;5.88;;;22.00;73.10;;;;;;5108320;28;20039;-51
2021/06/05 13:01:34;;;;;;;5.25;4.75;;;22.00;73.20;;;;;;5112391;28;20036;-58
2021/06/05 13:04:01;;;;;;;5.78;5.18;;;22.00;73.10;;;;;;5114654;28;20432;-57